sensor_id;sensor_type;location;lat;lon;timestamp;temperature;humidity
21149;DHT22;10732;51.472;6.466;2024-01-27T00:01:37;2.20;99.90
21149;DHT22;10732;51.472;6.466;2024-01-27T00:04:02;2.20;99.90
21149;DHT22;10732;51.472;6.466;2024-01-27T00:06:28;2.20;99.90
21149;DHT22;10732;51.472;6.466;2024-01-27T00:08:54;2.10;99.90
21149;DHT22;10732;51.472;6.466;2024-01-27T00:11:19;2.10;99.90
21149;DHT22;10732;51.472;6.466;2024-01-27T00:13:45;2.10;99.90
21149;DHT22;10732;51.472;6.466;2024-01-27T00:16:11;2.10;99.90
21149;DHT22;10732;51.472;6.466;2024-01-27T00:18:38;2.10;99.90
21149;DHT22;10732;51.472;6.466;2024-01-27T00:21:05;2.00;99.90
21149;DHT22;10732;51.472;6.466;2024-01-27T00:23:31;1.90;99.90
21149;DHT22;10732;51.472;6.466;2024-01-27T00:25:57;1.90;99.90
21149;DHT22;10732;51.472;6.466;2024-01-27T00:28:23;1.80;99.90
21149;DHT22;10732;51.472;6.466;2024-01-27T00:30:48;1.80;99.90
21149;DHT22;10732;51.472;6.466;2024-01-27T00:33:14;1.70;99.90
21149;DHT22;10732;51.472;6.466;2024-01-27T00:35:39;1.70;99.90
21149;DHT22;10732;51.472;6.466;2024-01-27T00:38:05;1.90;99.90
21149;DHT22;10732;51.472;6.466;2024-01-27T00:40:30;1.90;99.90
21149;DHT22;10732;51.472;6.466;2024-01-27T00:42:56;1.80;99.90
21149;DHT22;10732;51.472;6.466;2024-01-27T00:45:21;1.80;99.90
21149;DHT22;10732;51.472;6.466;2024-01-27T00:47:52;1.70;99.90
21149;DHT22;10732;51.472;6.466;2024-01-27T00:50:18;1.70;99.90
21149;DHT22;10732;51.472;6.466;2024-01-27T00:52:43;1.70;99.90
21149;DHT22;10732;51.472;6.466;2024-01-27T00:55:09;1.70;99.90
21149;DHT22;10732;51.472;6.466;2024-01-27T00:57:38;1.60;99.90
21149;DHT22;10732;51.472;6.466;2024-01-27T01:00:05;1.50;99.90
21149;DHT22;10732;51.472;6.466;2024-01-27T01:02:32;1.40;99.90
21149;DHT22;10732;51.472;6.466;2024-01-27T01:04:57;1.40;99.90
21149;DHT22;10732;51.472;6.466;2024-01-27T01:07:23;1.40;99.90
21149;DHT22;10732;51.472;6.466;2024-01-27T01:09:48;1.30;99.90
21149;DHT22;10732;51.472;6.466;2024-01-27T01:12:14;1.30;99.90
21149;DHT22;10732;51.472;6.466;2024-01-27T01:14:40;1.20;99.90
21149;DHT22;10732;51.472;6.466;2024-01-27T01:17:06;1.10;99.90
21149;DHT22;10732;51.472;6.466;2024-01-27T01:19:31;1.00;99.90
21149;DHT22;10732;51.472;6.466;2024-01-27T01:21:57;0.90;99.90
21149;DHT22;10732;51.472;6.466;2024-01-27T01:24:22;0.80;99.90
21149;DHT22;10732;51.472;6.466;2024-01-27T01:26:48;0.80;99.90
21149;DHT22;10732;51.472;6.466;2024-01-27T01:29:13;0.70;99.90
21149;DHT22;10732;51.472;6.466;2024-01-27T01:31:42;0.60;99.90
21149;DHT22;10732;51.472;6.466;2024-01-27T01:34:08;0.60;99.90
21149;DHT22;10732;51.472;6.466;2024-01-27T01:36:33;0.60;99.90
21149;DHT22;10732;51.472;6.466;2024-01-27T01:38:59;0.50;99.90
21149;DHT22;10732;51.472;6.466;2024-01-27T01:41:24;0.50;99.90
21149;DHT22;10732;51.472;6.466;2024-01-27T01:43:50;0.50;99.90
21149;DHT22;10732;51.472;6.466;2024-01-27T01:46:16;0.50;99.90
21149;DHT22;10732;51.472;6.466;2024-01-27T01:48:41;0.40;99.90
21149;DHT22;10732;51.472;6.466;2024-01-27T01:51:08;0.40;99.90
21149;DHT22;10732;51.472;6.466;2024-01-27T01:53:34;0.40;99.90
21149;DHT22;10732;51.472;6.466;2024-01-27T01:56:01;0.30;99.90
21149;DHT22;10732;51.472;6.466;2024-01-27T01:58:26;0.30;99.90
21149;DHT22;10732;51.472;6.466;2024-01-27T02:01:00;0.20;99.90
21149;DHT22;10732;51.472;6.466;2024-01-27T02:03:25;0.20;99.90
21149;DHT22;10732;51.472;6.466;2024-01-27T02:05:51;0.20;99.90
21149;DHT22;10732;51.472;6.466;2024-01-27T02:08:17;0.20;99.90
21149;DHT22;10732;51.472;6.466;2024-01-27T02:10:42;0.30;99.90
21149;DHT22;10732;51.472;6.466;2024-01-27T02:15:47;0.40;99.90
21149;DHT22;10732;51.472;6.466;2024-01-27T02:18:13;0.30;99.90
21149;DHT22;10732;51.472;6.466;2024-01-27T02:20:39;0.30;99.90
21149;DHT22;10732;51.472;6.466;2024-01-27T02:23:05;0.40;99.90
21149;DHT22;10732;51.472;6.466;2024-01-27T02:25:31;0.30;99.90
21149;DHT22;10732;51.472;6.466;2024-01-27T02:27:57;0.20;99.90
21149;DHT22;10732;51.472;6.466;2024-01-27T02:30:23;0.10;99.90
21149;DHT22;10732;51.472;6.466;2024-01-27T02:32:49;0.10;99.90
21149;DHT22;10732;51.472;6.466;2024-01-27T02:35:14;0.00;99.90
21149;DHT22;10732;51.472;6.466;2024-01-27T02:37:41;0.00;99.90
21149;DHT22;10732;51.472;6.466;2024-01-27T02:40:08;-0.10;99.90
21149;DHT22;10732;51.472;6.466;2024-01-27T02:42:35;-0.10;99.90
21149;DHT22;10732;51.472;6.466;2024-01-27T02:45:01;-0.10;99.90
21149;DHT22;10732;51.472;6.466;2024-01-27T02:47:26;-0.10;99.90
21149;DHT22;10732;51.472;6.466;2024-01-27T02:49:52;-0.10;99.90
21149;DHT22;10732;51.472;6.466;2024-01-27T02:52:17;-0.20;99.90
21149;DHT22;10732;51.472;6.466;2024-01-27T02:54:43;-0.10;99.90
21149;DHT22;10732;51.472;6.466;2024-01-27T02:57:08;-0.20;99.90
21149;DHT22;10732;51.472;6.466;2024-01-27T02:59:34;-0.20;99.90
21149;DHT22;10732;51.472;6.466;2024-01-27T03:01:59;-0.30;99.90
21149;DHT22;10732;51.472;6.466;2024-01-27T03:04:25;-0.30;99.90
21149;DHT22;10732;51.472;6.466;2024-01-27T03:06:50;-0.30;99.90
21149;DHT22;10732;51.472;6.466;2024-01-27T03:09:16;-0.30;99.90
21149;DHT22;10732;51.472;6.466;2024-01-27T03:11:41;-0.30;99.90
21149;DHT22;10732;51.472;6.466;2024-01-27T03:14:07;-0.30;99.90
21149;DHT22;10732;51.472;6.466;2024-01-27T03:16:32;-0.30;99.90
21149;DHT22;10732;51.472;6.466;2024-01-27T03:18:58;-0.20;99.90
21149;DHT22;10732;51.472;6.466;2024-01-27T03:21:24;-0.20;99.90
21149;DHT22;10732;51.472;6.466;2024-01-27T03:23:50;-0.20;99.90
21149;DHT22;10732;51.472;6.466;2024-01-27T03:26:15;-0.20;99.90
21149;DHT22;10732;51.472;6.466;2024-01-27T03:28:41;-0.10;99.90
21149;DHT22;10732;51.472;6.466;2024-01-27T03:31:06;-0.10;99.90
21149;DHT22;10732;51.472;6.466;2024-01-27T03:33:32;-0.10;99.90
21149;DHT22;10732;51.472;6.466;2024-01-27T03:35:57;-0.10;99.90
21149;DHT22;10732;51.472;6.466;2024-01-27T03:38:23;-0.10;99.90
21149;DHT22;10732;51.472;6.466;2024-01-27T03:40:49;-0.10;99.90
21149;DHT22;10732;51.472;6.466;2024-01-27T03:43:14;0.00;99.90
21149;DHT22;10732;51.472;6.466;2024-01-27T03:45:40;-0.10;99.90
21149;DHT22;10732;51.472;6.466;2024-01-27T03:48:06;-0.10;99.90
21149;DHT22;10732;51.472;6.466;2024-01-27T03:50:31;-0.20;99.90
21149;DHT22;10732;51.472;6.466;2024-01-27T03:52:57;-0.20;99.90
21149;DHT22;10732;51.472;6.466;2024-01-27T03:55:22;-0.30;99.90
21149;DHT22;10732;51.472;6.466;2024-01-27T03:57:48;-0.20;99.90
21149;DHT22;10732;51.472;6.466;2024-01-27T04:00:13;-0.30;99.90
21149;DHT22;10732;51.472;6.466;2024-01-27T04:02:39;-0.30;99.90
21149;DHT22;10732;51.472;6.466;2024-01-27T04:05:05;-0.40;99.90
21149;DHT22;10732;51.472;6.466;2024-01-27T04:07:31;-0.40;99.90
21149;DHT22;10732;51.472;6.466;2024-01-27T04:09:57;-0.40;99.90
21149;DHT22;10732;51.472;6.466;2024-01-27T04:12:22;-0.50;99.90
21149;DHT22;10732;51.472;6.466;2024-01-27T04:14:48;-0.40;99.90
21149;DHT22;10732;51.472;6.466;2024-01-27T04:17:13;-0.30;99.90
21149;DHT22;10732;51.472;6.466;2024-01-27T04:19:39;-0.30;99.90
21149;DHT22;10732;51.472;6.466;2024-01-27T04:22:04;-0.40;99.90
21149;DHT22;10732;51.472;6.466;2024-01-27T04:24:30;-0.40;99.90
21149;DHT22;10732;51.472;6.466;2024-01-27T04:26:55;-0.40;99.90
21149;DHT22;10732;51.472;6.466;2024-01-27T04:29:21;-0.40;99.90
21149;DHT22;10732;51.472;6.466;2024-01-27T04:31:46;-0.40;99.90
21149;DHT22;10732;51.472;6.466;2024-01-27T04:34:12;-0.40;99.90
21149;DHT22;10732;51.472;6.466;2024-01-27T04:36:37;-0.40;99.90
21149;DHT22;10732;51.472;6.466;2024-01-27T04:39:03;-0.40;99.90
21149;DHT22;10732;51.472;6.466;2024-01-27T04:41:29;-0.40;99.90
21149;DHT22;10732;51.472;6.466;2024-01-27T04:43:55;-0.40;99.90
21149;DHT22;10732;51.472;6.466;2024-01-27T04:46:22;-0.40;99.90
21149;DHT22;10732;51.472;6.466;2024-01-27T04:48:48;-0.40;99.90
21149;DHT22;10732;51.472;6.466;2024-01-27T04:51:13;-0.40;99.90
21149;DHT22;10732;51.472;6.466;2024-01-27T04:53:39;-0.40;99.90
21149;DHT22;10732;51.472;6.466;2024-01-27T04:56:05;-0.40;99.90
21149;DHT22;10732;51.472;6.466;2024-01-27T04:58:34;-0.50;99.90
21149;DHT22;10732;51.472;6.466;2024-01-27T05:01:00;-0.50;99.90
21149;DHT22;10732;51.472;6.466;2024-01-27T05:03:26;-0.50;99.90
21149;DHT22;10732;51.472;6.466;2024-01-27T05:05:52;-0.50;99.90
21149;DHT22;10732;51.472;6.466;2024-01-27T05:08:18;-0.50;99.90
21149;DHT22;10732;51.472;6.466;2024-01-27T05:10:44;-0.60;99.90
21149;DHT22;10732;51.472;6.466;2024-01-27T05:13:10;-0.50;99.90
21149;DHT22;10732;51.472;6.466;2024-01-27T05:15:35;-0.60;99.90
21149;DHT22;10732;51.472;6.466;2024-01-27T05:18:01;-0.60;99.90
21149;DHT22;10732;51.472;6.466;2024-01-27T05:20:26;-0.60;99.90
21149;DHT22;10732;51.472;6.466;2024-01-27T05:22:52;-0.60;99.90
21149;DHT22;10732;51.472;6.466;2024-01-27T05:25:17;-0.60;99.90
21149;DHT22;10732;51.472;6.466;2024-01-27T05:27:43;-0.60;99.90
21149;DHT22;10732;51.472;6.466;2024-01-27T05:30:09;-0.60;99.90
21149;DHT22;10732;51.472;6.466;2024-01-27T05:32:35;-0.60;99.90
21149;DHT22;10732;51.472;6.466;2024-01-27T05:35:00;-0.60;99.90
21149;DHT22;10732;51.472;6.466;2024-01-27T05:37:26;-0.60;99.90
21149;DHT22;10732;51.472;6.466;2024-01-27T05:39:51;-0.70;99.90
21149;DHT22;10732;51.472;6.466;2024-01-27T05:42:17;-0.60;99.90
21149;DHT22;10732;51.472;6.466;2024-01-27T05:44:42;-0.70;99.90
21149;DHT22;10732;51.472;6.466;2024-01-27T05:47:08;-0.70;99.90
21149;DHT22;10732;51.472;6.466;2024-01-27T05:49:36;-0.60;99.90
21149;DHT22;10732;51.472;6.466;2024-01-27T05:52:02;-0.60;99.90
21149;DHT22;10732;51.472;6.466;2024-01-27T05:54:27;-0.60;99.90
21149;DHT22;10732;51.472;6.466;2024-01-27T05:56:53;-0.50;99.90
21149;DHT22;10732;51.472;6.466;2024-01-27T05:59:19;-0.50;99.90
21149;DHT22;10732;51.472;6.466;2024-01-27T06:01:44;-0.60;99.90
21149;DHT22;10732;51.472;6.466;2024-01-27T06:04:10;-0.60;99.90
21149;DHT22;10732;51.472;6.466;2024-01-27T06:06:38;-0.60;99.90
21149;DHT22;10732;51.472;6.466;2024-01-27T06:09:04;-0.70;99.90
21149;DHT22;10732;51.472;6.466;2024-01-27T06:11:30;-0.70;99.90
21149;DHT22;10732;51.472;6.466;2024-01-27T06:13:55;-0.70;99.90
21149;DHT22;10732;51.472;6.466;2024-01-27T06:16:21;-0.70;99.90
21149;DHT22;10732;51.472;6.466;2024-01-27T06:18:48;-0.70;99.90
21149;DHT22;10732;51.472;6.466;2024-01-27T06:21:14;-0.60;99.90
21149;DHT22;10732;51.472;6.466;2024-01-27T06:23:39;-0.60;99.90
21149;DHT22;10732;51.472;6.466;2024-01-27T06:26:08;-0.60;99.90
21149;DHT22;10732;51.472;6.466;2024-01-27T06:28:34;-0.60;99.90
21149;DHT22;10732;51.472;6.466;2024-01-27T06:31:03;-0.60;99.90
21149;DHT22;10732;51.472;6.466;2024-01-27T06:33:29;-0.70;99.90
21149;DHT22;10732;51.472;6.466;2024-01-27T06:35:55;-0.70;99.90
21149;DHT22;10732;51.472;6.466;2024-01-27T06:38:21;-0.70;99.90
21149;DHT22;10732;51.472;6.466;2024-01-27T06:40:46;-0.70;99.90
21149;DHT22;10732;51.472;6.466;2024-01-27T06:43:12;-0.80;99.90
21149;DHT22;10732;51.472;6.466;2024-01-27T06:45:39;-0.70;99.90
21149;DHT22;10732;51.472;6.466;2024-01-27T06:48:05;-0.80;99.90
21149;DHT22;10732;51.472;6.466;2024-01-27T06:50:31;-0.70;99.90
21149;DHT22;10732;51.472;6.466;2024-01-27T06:52:56;-0.70;99.90
21149;DHT22;10732;51.472;6.466;2024-01-27T06:55:22;-0.70;99.90
21149;DHT22;10732;51.472;6.466;2024-01-27T06:57:47;-0.70;99.90
21149;DHT22;10732;51.472;6.466;2024-01-27T07:00:13;-0.70;99.90
21149;DHT22;10732;51.472;6.466;2024-01-27T07:02:40;-0.80;99.90
21149;DHT22;10732;51.472;6.466;2024-01-27T07:05:07;-0.80;99.90
21149;DHT22;10732;51.472;6.466;2024-01-27T07:07:33;-0.80;99.90
21149;DHT22;10732;51.472;6.466;2024-01-27T07:09:59;-0.80;99.90
21149;DHT22;10732;51.472;6.466;2024-01-27T07:12:25;-0.90;99.90
21149;DHT22;10732;51.472;6.466;2024-01-27T07:14:51;-0.80;99.90
21149;DHT22;10732;51.472;6.466;2024-01-27T07:17:17;-0.70;99.90
21149;DHT22;10732;51.472;6.466;2024-01-27T07:19:43;-0.70;99.90
21149;DHT22;10732;51.472;6.466;2024-01-27T07:22:09;-0.60;99.90
21149;DHT22;10732;51.472;6.466;2024-01-27T07:24:34;-0.50;99.90
21149;DHT22;10732;51.472;6.466;2024-01-27T07:27:00;-0.50;99.90
21149;DHT22;10732;51.472;6.466;2024-01-27T07:29:26;-0.40;99.90
21149;DHT22;10732;51.472;6.466;2024-01-27T07:31:52;-0.30;99.90
21149;DHT22;10732;51.472;6.466;2024-01-27T07:34:18;-0.20;99.90
21149;DHT22;10732;51.472;6.466;2024-01-27T07:36:44;-0.10;99.90
21149;DHT22;10732;51.472;6.466;2024-01-27T07:39:09;0.00;99.90
21149;DHT22;10732;51.472;6.466;2024-01-27T07:41:35;0.00;99.90
21149;DHT22;10732;51.472;6.466;2024-01-27T07:44:10;0.00;99.90
21149;DHT22;10732;51.472;6.466;2024-01-27T07:46:37;0.10;99.90
21149;DHT22;10732;51.472;6.466;2024-01-27T07:49:03;0.10;99.90
21149;DHT22;10732;51.472;6.466;2024-01-27T07:51:29;0.10;99.90
21149;DHT22;10732;51.472;6.466;2024-01-27T07:53:55;0.20;99.90
21149;DHT22;10732;51.472;6.466;2024-01-27T07:56:21;0.30;99.90
21149;DHT22;10732;51.472;6.466;2024-01-27T07:58:46;0.30;99.90
21149;DHT22;10732;51.472;6.466;2024-01-27T08:01:18;0.40;99.90
21149;DHT22;10732;51.472;6.466;2024-01-27T08:03:44;0.50;99.90
21149;DHT22;10732;51.472;6.466;2024-01-27T08:06:17;0.50;99.90
21149;DHT22;10732;51.472;6.466;2024-01-27T08:08:47;0.60;99.90
21149;DHT22;10732;51.472;6.466;2024-01-27T08:11:14;0.60;99.90
21149;DHT22;10732;51.472;6.466;2024-01-27T08:13:40;0.70;99.90
21149;DHT22;10732;51.472;6.466;2024-01-27T08:16:06;0.80;99.90
21149;DHT22;10732;51.472;6.466;2024-01-27T08:18:35;0.80;99.90
21149;DHT22;10732;51.472;6.466;2024-01-27T08:21:01;0.80;99.90
21149;DHT22;10732;51.472;6.466;2024-01-27T08:23:26;1.10;99.90
21149;DHT22;10732;51.472;6.466;2024-01-27T08:25:52;2.30;99.90
21149;DHT22;10732;51.472;6.466;2024-01-27T08:28:18;3.20;99.90
21149;DHT22;10732;51.472;6.466;2024-01-27T08:30:44;3.90;99.90
21149;DHT22;10732;51.472;6.466;2024-01-27T08:33:09;4.00;99.90
21149;DHT22;10732;51.472;6.466;2024-01-27T08:35:35;4.70;99.90
21149;DHT22;10732;51.472;6.466;2024-01-27T08:38:01;5.10;99.90
21149;DHT22;10732;51.472;6.466;2024-01-27T08:40:26;5.60;99.90
21149;DHT22;10732;51.472;6.466;2024-01-27T08:42:52;6.20;99.90
21149;DHT22;10732;51.472;6.466;2024-01-27T08:45:17;6.60;99.90
21149;DHT22;10732;51.472;6.466;2024-01-27T08:47:43;6.30;99.90
21149;DHT22;10732;51.472;6.466;2024-01-27T08:50:09;5.40;99.90
21149;DHT22;10732;51.472;6.466;2024-01-27T08:52:36;5.60;99.90
21149;DHT22;10732;51.472;6.466;2024-01-27T08:55:01;6.40;99.90
21149;DHT22;10732;51.472;6.466;2024-01-27T08:57:27;6.20;99.90
21149;DHT22;10732;51.472;6.466;2024-01-27T08:59:52;6.70;99.90
21149;DHT22;10732;51.472;6.466;2024-01-27T09:02:18;7.00;99.90
21149;DHT22;10732;51.472;6.466;2024-01-27T09:04:43;7.30;99.90
21149;DHT22;10732;51.472;6.466;2024-01-27T09:07:09;7.60;99.90
21149;DHT22;10732;51.472;6.466;2024-01-27T09:09:34;7.60;99.90
21149;DHT22;10732;51.472;6.466;2024-01-27T09:12:00;7.40;99.90
21149;DHT22;10732;51.472;6.466;2024-01-27T09:14:25;7.60;99.90
21149;DHT22;10732;51.472;6.466;2024-01-27T09:16:51;8.00;99.90
21149;DHT22;10732;51.472;6.466;2024-01-27T09:19:18;8.70;99.90
21149;DHT22;10732;51.472;6.466;2024-01-27T09:21:43;8.30;99.90
21149;DHT22;10732;51.472;6.466;2024-01-27T09:24:09;9.00;99.90
21149;DHT22;10732;51.472;6.466;2024-01-27T09:26:34;9.00;99.90
21149;DHT22;10732;51.472;6.466;2024-01-27T09:29:00;8.40;99.90
21149;DHT22;10732;51.472;6.466;2024-01-27T09:31:25;8.30;99.90
21149;DHT22;10732;51.472;6.466;2024-01-27T09:33:52;9.40;99.90
21149;DHT22;10732;51.472;6.466;2024-01-27T09:36:19;9.70;99.90
21149;DHT22;10732;51.472;6.466;2024-01-27T09:38:45;10.60;99.90
21149;DHT22;10732;51.472;6.466;2024-01-27T09:41:12;10.40;99.90
21149;DHT22;10732;51.472;6.466;2024-01-27T09:43:42;10.10;99.90
21149;DHT22;10732;51.472;6.466;2024-01-27T09:46:08;9.10;99.90
21149;DHT22;10732;51.472;6.466;2024-01-27T09:48:35;8.60;99.90
21149;DHT22;10732;51.472;6.466;2024-01-27T09:51:01;8.50;99.90
21149;DHT22;10732;51.472;6.466;2024-01-27T09:53:28;8.50;99.90
21149;DHT22;10732;51.472;6.466;2024-01-27T09:55:57;9.10;99.90
21149;DHT22;10732;51.472;6.466;2024-01-27T09:58:24;9.20;99.90
21149;DHT22;10732;51.472;6.466;2024-01-27T10:00:53;9.50;99.90
21149;DHT22;10732;51.472;6.466;2024-01-27T10:03:21;8.90;99.90
21149;DHT22;10732;51.472;6.466;2024-01-27T10:05:48;9.10;99.90
21149;DHT22;10732;51.472;6.466;2024-01-27T10:08:14;9.40;99.90
21149;DHT22;10732;51.472;6.466;2024-01-27T10:10:39;9.90;99.90
21149;DHT22;10732;51.472;6.466;2024-01-27T10:13:05;10.20;99.90
21149;DHT22;10732;51.472;6.466;2024-01-27T10:15:31;10.10;99.90
21149;DHT22;10732;51.472;6.466;2024-01-27T10:18:07;10.40;99.90
21149;DHT22;10732;51.472;6.466;2024-01-27T10:20:33;10.80;99.90
21149;DHT22;10732;51.472;6.466;2024-01-27T10:23:09;10.90;99.90
21149;DHT22;10732;51.472;6.466;2024-01-27T10:25:38;10.40;99.90
21149;DHT22;10732;51.472;6.466;2024-01-27T10:28:05;10.90;99.90
21149;DHT22;10732;51.472;6.466;2024-01-27T10:30:32;10.40;99.90
21149;DHT22;10732;51.472;6.466;2024-01-27T10:32:57;10.50;99.90
21149;DHT22;10732;51.472;6.466;2024-01-27T10:35:23;10.60;99.90
21149;DHT22;10732;51.472;6.466;2024-01-27T10:37:54;10.60;99.90
21149;DHT22;10732;51.472;6.466;2024-01-27T10:40:21;10.40;99.90
21149;DHT22;10732;51.472;6.466;2024-01-27T10:42:46;10.20;99.90
21149;DHT22;10732;51.472;6.466;2024-01-27T10:45:17;10.90;99.90
21149;DHT22;10732;51.472;6.466;2024-01-27T10:47:44;11.60;99.90
21149;DHT22;10732;51.472;6.466;2024-01-27T10:50:11;11.30;99.90
21149;DHT22;10732;51.472;6.466;2024-01-27T10:52:41;11.60;99.90
21149;DHT22;10732;51.472;6.466;2024-01-27T10:55:10;11.20;99.90
21149;DHT22;10732;51.472;6.466;2024-01-27T10:57:37;11.60;99.90
21149;DHT22;10732;51.472;6.466;2024-01-27T11:00:04;10.80;99.90
21149;DHT22;10732;51.472;6.466;2024-01-27T11:02:34;10.80;99.90
21149;DHT22;10732;51.472;6.466;2024-01-27T11:05:02;10.90;99.90
21149;DHT22;10732;51.472;6.466;2024-01-27T11:07:33;10.90;99.90
21149;DHT22;10732;51.472;6.466;2024-01-27T11:09:59;11.00;99.90
21149;DHT22;10732;51.472;6.466;2024-01-27T11:12:25;10.60;99.90
21149;DHT22;10732;51.472;6.466;2024-01-27T11:14:52;10.60;99.90
21149;DHT22;10732;51.472;6.466;2024-01-27T11:17:18;10.80;99.90
21149;DHT22;10732;51.472;6.466;2024-01-27T11:19:47;11.20;99.90
21149;DHT22;10732;51.472;6.466;2024-01-27T11:22:26;11.50;99.90
21149;DHT22;10732;51.472;6.466;2024-01-27T11:25:14;11.40;99.90
21149;DHT22;10732;51.472;6.466;2024-01-27T11:27:39;11.40;99.90
21149;DHT22;10732;51.472;6.466;2024-01-27T11:30:06;11.80;99.90
21149;DHT22;10732;51.472;6.466;2024-01-27T11:32:36;11.30;99.90
21149;DHT22;10732;51.472;6.466;2024-01-27T11:35:02;10.70;99.90
21149;DHT22;10732;51.472;6.466;2024-01-27T11:37:30;10.60;99.90
21149;DHT22;10732;51.472;6.466;2024-01-27T11:40:06;11.00;99.90
21149;DHT22;10732;51.472;6.466;2024-01-27T11:42:32;11.40;99.90
21149;DHT22;10732;51.472;6.466;2024-01-27T11:44:58;11.50;99.90
21149;DHT22;10732;51.472;6.466;2024-01-27T11:47:26;11.00;99.90
21149;DHT22;10732;51.472;6.466;2024-01-27T11:49:52;11.30;99.90
21149;DHT22;10732;51.472;6.466;2024-01-27T11:52:19;11.30;99.90
21149;DHT22;10732;51.472;6.466;2024-01-27T11:54:44;11.10;99.90
21149;DHT22;10732;51.472;6.466;2024-01-27T11:57:10;10.70;99.90
21149;DHT22;10732;51.472;6.466;2024-01-27T11:59:35;10.80;99.90
21149;DHT22;10732;51.472;6.466;2024-01-27T12:02:02;11.30;99.90
21149;DHT22;10732;51.472;6.466;2024-01-27T12:04:28;11.30;99.90
21149;DHT22;10732;51.472;6.466;2024-01-27T12:06:54;11.20;99.90
21149;DHT22;10732;51.472;6.466;2024-01-27T12:09:20;11.30;99.90
21149;DHT22;10732;51.472;6.466;2024-01-27T12:11:45;11.30;99.90
21149;DHT22;10732;51.472;6.466;2024-01-27T12:14:11;11.30;99.90
21149;DHT22;10732;51.472;6.466;2024-01-27T12:16:37;11.20;99.90
21149;DHT22;10732;51.472;6.466;2024-01-27T12:19:03;11.00;99.90
21149;DHT22;10732;51.472;6.466;2024-01-27T12:21:29;11.20;99.90
21149;DHT22;10732;51.472;6.466;2024-01-27T12:23:56;10.80;99.90
21149;DHT22;10732;51.472;6.466;2024-01-27T12:26:23;10.50;99.90
21149;DHT22;10732;51.472;6.466;2024-01-27T12:28:49;9.90;99.90
21149;DHT22;10732;51.472;6.466;2024-01-27T12:31:16;9.70;99.90
21149;DHT22;10732;51.472;6.466;2024-01-27T12:33:52;9.10;99.90
21149;DHT22;10732;51.472;6.466;2024-01-27T12:36:18;9.00;99.90
21149;DHT22;10732;51.472;6.466;2024-01-27T12:38:59;9.00;99.90
21149;DHT22;10732;51.472;6.466;2024-01-27T12:41:28;8.80;99.90
21149;DHT22;10732;51.472;6.466;2024-01-27T12:43:55;9.00;99.90
21149;DHT22;10732;51.472;6.466;2024-01-27T12:46:21;8.80;99.90
21149;DHT22;10732;51.472;6.466;2024-01-27T12:48:47;8.70;99.90
21149;DHT22;10732;51.472;6.466;2024-01-27T12:51:12;8.50;99.90
21149;DHT22;10732;51.472;6.466;2024-01-27T12:53:39;8.40;99.90
21149;DHT22;10732;51.472;6.466;2024-01-27T12:56:08;8.50;99.90
21149;DHT22;10732;51.472;6.466;2024-01-27T12:58:34;8.60;99.90
21149;DHT22;10732;51.472;6.466;2024-01-27T13:01:00;8.60;99.90
21149;DHT22;10732;51.472;6.466;2024-01-27T13:03:26;8.70;99.90
21149;DHT22;10732;51.472;6.466;2024-01-27T13:05:51;8.70;99.90
21149;DHT22;10732;51.472;6.466;2024-01-27T13:08:17;8.70;99.90
21149;DHT22;10732;51.472;6.466;2024-01-27T13:10:42;8.80;99.90
21149;DHT22;10732;51.472;6.466;2024-01-27T13:13:08;8.70;99.90
21149;DHT22;10732;51.472;6.466;2024-01-27T13:15:33;8.70;99.90
21149;DHT22;10732;51.472;6.466;2024-01-27T13:17:59;8.70;99.90
21149;DHT22;10732;51.472;6.466;2024-01-27T13:20:24;8.60;99.90
21149;DHT22;10732;51.472;6.466;2024-01-27T13:22:50;8.60;99.90
21149;DHT22;10732;51.472;6.466;2024-01-27T13:25:18;8.50;99.90
21149;DHT22;10732;51.472;6.466;2024-01-27T13:27:43;8.50;99.90
21149;DHT22;10732;51.472;6.466;2024-01-27T13:30:09;8.60;99.90
21149;DHT22;10732;51.472;6.466;2024-01-27T13:32:35;8.50;99.90
21149;DHT22;10732;51.472;6.466;2024-01-27T13:35:00;8.50;99.90
21149;DHT22;10732;51.472;6.466;2024-01-27T13:37:26;8.50;99.90
21149;DHT22;10732;51.472;6.466;2024-01-27T13:39:53;8.50;99.90
21149;DHT22;10732;51.472;6.466;2024-01-27T13:42:18;8.50;99.90
21149;DHT22;10732;51.472;6.466;2024-01-27T13:44:44;8.50;99.90
21149;DHT22;10732;51.472;6.466;2024-01-27T13:47:11;8.30;99.90
21149;DHT22;10732;51.472;6.466;2024-01-27T13:49:37;8.30;99.90
21149;DHT22;10732;51.472;6.466;2024-01-27T13:52:04;8.10;99.90
21149;DHT22;10732;51.472;6.466;2024-01-27T13:54:29;8.10;99.90
21149;DHT22;10732;51.472;6.466;2024-01-27T13:56:56;8.10;99.90
21149;DHT22;10732;51.472;6.466;2024-01-27T13:59:23;8.00;99.90
21149;DHT22;10732;51.472;6.466;2024-01-27T14:01:48;8.00;99.90
21149;DHT22;10732;51.472;6.466;2024-01-27T14:04:14;8.00;99.90
21149;DHT22;10732;51.472;6.466;2024-01-27T14:06:39;8.00;99.90
21149;DHT22;10732;51.472;6.466;2024-01-27T14:09:05;8.00;99.90
21149;DHT22;10732;51.472;6.466;2024-01-27T14:11:30;8.00;99.90
21149;DHT22;10732;51.472;6.466;2024-01-27T14:13:56;8.00;99.90
21149;DHT22;10732;51.472;6.466;2024-01-27T14:16:21;7.90;99.90
21149;DHT22;10732;51.472;6.466;2024-01-27T14:18:48;7.90;99.90
21149;DHT22;10732;51.472;6.466;2024-01-27T14:21:13;8.00;99.90
21149;DHT22;10732;51.472;6.466;2024-01-27T14:23:39;7.90;99.90
21149;DHT22;10732;51.472;6.466;2024-01-27T14:26:04;7.80;99.90
21149;DHT22;10732;51.472;6.466;2024-01-27T14:28:30;7.80;99.90
21149;DHT22;10732;51.472;6.466;2024-01-27T14:30:55;7.90;99.90
21149;DHT22;10732;51.472;6.466;2024-01-27T14:33:21;7.90;99.90
21149;DHT22;10732;51.472;6.466;2024-01-27T14:35:48;7.90;99.90
21149;DHT22;10732;51.472;6.466;2024-01-27T14:38:14;7.80;99.90
21149;DHT22;10732;51.472;6.466;2024-01-27T14:40:39;7.80;99.90
21149;DHT22;10732;51.472;6.466;2024-01-27T14:43:05;7.80;99.90
21149;DHT22;10732;51.472;6.466;2024-01-27T14:45:35;7.60;99.90
21149;DHT22;10732;51.472;6.466;2024-01-27T14:48:01;7.60;99.90
21149;DHT22;10732;51.472;6.466;2024-01-27T14:50:27;7.60;99.90
21149;DHT22;10732;51.472;6.466;2024-01-27T14:52:53;7.50;99.90
21149;DHT22;10732;51.472;6.466;2024-01-27T14:55:18;7.60;99.90
21149;DHT22;10732;51.472;6.466;2024-01-27T14:57:44;7.50;99.90
21149;DHT22;10732;51.472;6.466;2024-01-27T15:00:10;7.50;99.90
21149;DHT22;10732;51.472;6.466;2024-01-27T15:02:36;7.50;99.90
21149;DHT22;10732;51.472;6.466;2024-01-27T15:05:01;7.40;99.90
21149;DHT22;10732;51.472;6.466;2024-01-27T15:07:28;7.40;99.90
21149;DHT22;10732;51.472;6.466;2024-01-27T15:09:55;7.30;99.90
21149;DHT22;10732;51.472;6.466;2024-01-27T15:12:21;7.30;99.90
21149;DHT22;10732;51.472;6.466;2024-01-27T15:14:47;7.20;99.90
21149;DHT22;10732;51.472;6.466;2024-01-27T15:17:12;7.20;99.90
21149;DHT22;10732;51.472;6.466;2024-01-27T15:19:38;7.10;99.90
21149;DHT22;10732;51.472;6.466;2024-01-27T15:22:03;7.10;99.90
21149;DHT22;10732;51.472;6.466;2024-01-27T15:24:29;6.90;99.90
21149;DHT22;10732;51.472;6.466;2024-01-27T15:26:58;6.90;99.90
21149;DHT22;10732;51.472;6.466;2024-01-27T15:29:24;6.90;99.90
21149;DHT22;10732;51.472;6.466;2024-01-27T15:31:49;6.80;99.90
21149;DHT22;10732;51.472;6.466;2024-01-27T15:34:15;6.70;99.90
21149;DHT22;10732;51.472;6.466;2024-01-27T15:36:40;6.70;99.90